createdAt,value
2022-11-19T00:00:02.881Z,7.88
2022-11-19T00:02:32.013Z,7.69
2022-11-19T00:05:05.426Z,7.76
2022-11-19T00:07:34.075Z,7.45
2022-11-19T00:10:02.453Z,7.06
2022-11-19T00:12:49.339Z,7.09
2022-11-19T00:15:18.052Z,7.62
2022-11-19T00:17:46.683Z,7.87
2022-11-19T00:20:18.950Z,7.35
2022-11-19T00:22:52.205Z,7.69
2022-11-19T00:25:22.461Z,7.95
2022-11-19T00:27:51.498Z,7.82
2022-11-19T00:30:46.408Z,6.91
2022-11-19T00:33:10.137Z,7.86
2022-11-19T00:35:43.531Z,8.01
2022-11-19T00:38:12.620Z,7.81
2022-11-19T00:40:41.508Z,7.01
2022-11-19T00:43:27.706Z,7.28
2022-11-19T00:45:56.921Z,7.32
2022-11-19T00:48:26.447Z,7.17
2022-11-19T00:51:00.019Z,7.70
2022-11-19T00:53:29.617Z,7.95
2022-11-19T00:56:03.839Z,7.90
2022-11-19T00:58:33.123Z,8.09
2022-11-19T01:01:02.939Z,7.82
2022-11-19T01:03:31.983Z,8.11
2022-11-19T01:06:15.253Z,7.94
2022-11-19T01:08:50.152Z,7.89
2022-11-19T01:11:21.458Z,7.58
2022-11-19T01:13:52.382Z,7.66
2022-11-19T01:16:26.671Z,7.81
2022-11-19T01:18:56.183Z,7.32
2022-11-19T01:21:29.304Z,7.64
2022-11-19T01:23:59.114Z,7.55
2022-11-19T01:26:29.156Z,7.20
2022-11-19T01:28:58.657Z,7.15
2022-11-19T01:31:31.006Z,7.05
2022-11-19T01:34:00.953Z,7.18
2022-11-19T01:36:33.300Z,7.23
2022-11-19T01:39:02.661Z,7.41
2022-11-19T01:41:34.787Z,7.00
2022-11-19T01:44:05.582Z,6.79
2022-11-19T01:46:37.209Z,7.18
2022-11-19T01:49:18.995Z,7.03
2022-11-19T01:51:56.096Z,6.65
2022-11-19T01:54:32.529Z,7.20
2022-11-19T01:57:08.484Z,6.91
2022-11-19T01:59:37.747Z,7.30
2022-11-19T02:02:08.387Z,7.23
2022-11-19T02:04:38.009Z,7.39
2022-11-19T02:07:11.140Z,6.45
2022-11-19T02:09:41.650Z,7.13
2022-11-19T02:12:29.788Z,7.19
2022-11-19T02:15:17.910Z,6.88
2022-11-19T02:18:08.207Z,6.89
2022-11-19T02:20:53.989Z,6.78
2022-11-19T02:24:13.721Z,6.25
2022-11-19T02:27:27.006Z,6.67
2022-11-19T02:30:25.825Z,6.72
2022-11-19T02:33:08.156Z,6.63
2022-11-19T02:35:56.549Z,6.96
2022-11-19T02:38:33.437Z,6.34
2022-11-19T02:41:31.284Z,6.52
2022-11-19T02:44:28.251Z,6.58
2022-11-19T02:47:01.047Z,6.50
2022-11-19T02:49:33.505Z,6.72
2022-11-19T02:52:02.638Z,6.62
2022-11-19T02:54:32.038Z,6.54
2022-11-19T02:57:06.005Z,6.36
2022-11-19T02:59:59.137Z,6.17
2022-11-19T03:02:53.052Z,6.53
2022-11-19T03:05:25.976Z,6.70
2022-11-19T03:07:55.891Z,6.92
2022-11-19T03:10:31.149Z,6.56
2022-11-19T03:13:25.477Z,6.31
2022-11-19T03:16:15.812Z,6.68
2022-11-19T03:18:53.102Z,6.53
2022-11-19T03:21:26.271Z,6.57
2022-11-19T03:24:01.476Z,6.38
2022-11-19T03:26:36.589Z,6.59
2022-11-19T03:29:10.439Z,6.79
2022-11-19T03:31:42.490Z,6.30
2022-11-19T03:34:20.477Z,6.45
2022-11-19T03:36:55.093Z,6.45
2022-11-19T03:39:27.609Z,6.32
2022-11-19T03:41:58.538Z,6.31
2022-11-19T03:44:33.774Z,6.07
2022-11-19T03:47:06.295Z,6.21
2022-11-19T03:49:42.097Z,6.28
2022-11-19T03:52:13.971Z,6.66
2022-11-19T03:54:43.778Z,6.32
2022-11-19T03:57:16.395Z,6.10
2022-11-19T03:59:45.025Z,6.12
2022-11-19T04:02:15.212Z,6.09
2022-11-19T04:04:45.108Z,5.98
2022-11-19T04:07:16.862Z,6.10
2022-11-19T04:09:45.758Z,6.38
2022-11-19T04:12:18.930Z,6.05
2022-11-19T04:14:48.320Z,5.96
2022-11-19T04:17:17.626Z,6.14
2022-11-19T04:19:47.421Z,6.14
2022-11-19T04:22:16.338Z,6.58
2022-11-19T04:24:44.737Z,6.76
2022-11-19T04:27:14.091Z,6.38
2022-11-19T04:29:42.513Z,6.52
2022-11-19T04:32:10.957Z,6.74
2022-11-19T04:34:39.713Z,6.59
2022-11-19T04:37:09.780Z,5.95
2022-11-19T04:39:38.144Z,6.64
2022-11-19T04:42:06.844Z,6.23
2022-11-19T04:44:35.508Z,6.32
2022-11-19T04:47:03.734Z,6.62
2022-11-19T04:49:31.878Z,6.11
2022-11-19T04:52:02.115Z,6.02
2022-11-19T04:54:32.060Z,5.99
2022-11-19T04:57:00.522Z,6.26
2022-11-19T04:59:29.672Z,5.88
2022-11-19T05:02:04.630Z,5.88
2022-11-19T05:04:32.824Z,5.98
2022-11-19T05:07:01.456Z,6.12
2022-11-19T05:09:31.427Z,6.15
2022-11-19T05:11:59.979Z,5.99
2022-11-19T05:14:30.642Z,6.13
2022-11-19T05:16:59.253Z,6.25
2022-11-19T05:19:27.710Z,5.84
2022-11-19T05:21:56.225Z,6.05
2022-11-19T05:24:25.182Z,5.93
2022-11-19T05:26:57.519Z,5.78
2022-11-19T05:29:26.116Z,5.28
2022-11-19T05:31:55.531Z,5.77
2022-11-19T05:34:24.498Z,5.78
2022-11-19T05:36:53.104Z,5.66
2022-11-19T05:39:22.732Z,5.64
2022-11-19T05:41:51.406Z,5.90
2022-11-19T05:44:21.313Z,5.76
2022-11-19T05:46:49.877Z,5.66
2022-11-19T05:49:18.856Z,5.38
2022-11-19T05:51:48.252Z,5.79
2022-11-19T05:54:16.798Z,5.22
2022-11-19T05:56:46.532Z,5.60
2022-11-19T05:59:15.667Z,5.91
2022-11-19T06:01:45.374Z,5.68
2022-11-19T06:04:14.002Z,5.34
2022-11-19T06:06:42.556Z,5.26
2022-11-19T06:09:11.994Z,5.06
2022-11-19T06:11:50.490Z,5.26
2022-11-19T06:14:22.494Z,5.47
2022-11-19T06:16:53.788Z,5.02
2022-11-19T06:19:23.044Z,5.04
2022-11-19T06:21:52.794Z,5.17
2022-11-19T06:24:21.739Z,4.95
2022-11-19T06:26:50.595Z,5.39
2022-11-19T06:29:20.981Z,4.97
2022-11-19T06:31:51.363Z,4.92
2022-11-19T06:34:20.448Z,4.70
2022-11-19T06:36:50.704Z,4.69
2022-11-19T06:39:20.753Z,5.06
2022-11-19T06:41:49.802Z,5.22
2022-11-19T06:44:19.338Z,4.68
2022-11-19T06:46:49.058Z,4.84
2022-11-19T06:49:20.456Z,5.09
2022-11-19T06:51:51.774Z,4.97
2022-11-19T06:54:20.130Z,4.36
2022-11-19T06:56:48.925Z,4.39
2022-11-19T06:59:17.982Z,4.59
2022-11-19T07:01:46.369Z,4.75
2022-11-19T07:04:16.233Z,4.36
2022-11-19T07:06:46.395Z,4.37
2022-11-19T07:09:15.243Z,4.37
2022-11-19T07:11:43.622Z,4.69
2022-11-19T07:14:12.387Z,4.15
2022-11-19T07:16:40.975Z,3.84
2022-11-19T07:19:10.062Z,4.15
2022-11-19T07:21:38.907Z,4.46
2022-11-19T07:24:11.665Z,4.21
2022-11-19T07:26:40.429Z,3.83
2022-11-19T07:29:10.235Z,3.83
2022-11-19T07:31:39.121Z,3.83
2022-11-19T07:34:08.457Z,3.72
2022-11-19T07:36:37.628Z,3.95
2022-11-19T07:39:11.887Z,4.05
2022-11-19T07:41:57.774Z,3.94
2022-11-19T07:44:26.148Z,3.60
2022-11-19T07:46:55.730Z,3.89
2022-11-19T07:49:25.026Z,3.79
2022-11-19T07:51:55.008Z,3.45
2022-11-19T07:54:28.191Z,3.52
2022-11-19T07:56:57.426Z,3.49
2022-11-19T07:59:27.056Z,3.79
2022-11-19T08:01:56.421Z,3.44
2022-11-19T08:04:26.147Z,3.44
2022-11-19T08:06:54.863Z,3.38
2022-11-19T08:09:25.309Z,3.42
2022-11-19T08:11:53.709Z,3.71
2022-11-19T08:14:25.505Z,3.35
2022-11-19T08:17:11.865Z,3.28
2022-11-19T08:19:42.937Z,3.37
2022-11-19T08:22:16.278Z,3.95
2022-11-19T08:24:49.496Z,3.63
2022-11-19T08:27:18.675Z,3.59
2022-11-19T08:29:48.032Z,3.59
2022-11-19T08:32:18.368Z,3.31
2022-11-19T08:34:47.142Z,3.95
2022-11-19T08:37:18.809Z,4.25
2022-11-19T08:39:51.132Z,4.16
2022-11-19T08:42:37.669Z,4.00
2022-11-19T08:45:11.312Z,4.00
2022-11-19T08:47:40.180Z,3.46
2022-11-19T08:50:13.449Z,4.31
2022-11-19T08:52:45.109Z,4.57
2022-11-19T08:55:15.657Z,4.53
2022-11-19T08:57:44.897Z,4.09
2022-11-19T09:00:18.147Z,4.68
2022-11-19T09:02:49.130Z,5.01
2022-11-19T09:05:20.332Z,4.70
2022-11-19T09:07:48.963Z,5.13
2022-11-19T09:10:20.281Z,5.28
2022-11-19T09:12:49.657Z,5.14
2022-11-19T09:15:19.498Z,5.35
2022-11-19T09:17:49.015Z,5.35
2022-11-19T09:20:18.501Z,5.50
2022-11-19T09:22:50.114Z,5.50
2022-11-19T09:25:27.168Z,5.55
2022-11-19T09:28:02.778Z,6.22
2022-11-19T09:30:36.360Z,5.27
2022-11-19T09:33:05.785Z,5.53
2022-11-19T09:35:34.769Z,5.86
2022-11-19T09:38:11.424Z,5.87
2022-11-19T09:40:47.088Z,6.01
2022-11-19T09:43:25.928Z,6.18
2022-11-19T09:46:28.313Z,6.49
2022-11-19T09:49:01.473Z,6.64
2022-11-19T09:51:39.517Z,6.59
2022-11-19T09:54:17.205Z,6.33
2022-11-19T09:56:59.088Z,6.57
2022-11-19T09:59:39.847Z,6.33
2022-11-19T10:02:19.899Z,7.16
2022-11-19T10:04:54.021Z,7.34
2022-11-19T10:07:43.057Z,7.31
2022-11-19T10:10:36.774Z,7.70
2022-11-19T10:13:30.327Z,8.33
2022-11-19T10:16:20.013Z,8.62
2022-11-19T10:19:04.208Z,8.71
2022-11-19T10:21:42.056Z,8.16
2022-11-19T10:24:28.698Z,7.97
2022-11-19T10:28:02.389Z,8.57
2022-11-19T10:30:32.894Z,8.62
2022-11-19T10:33:09.815Z,8.10
2022-11-19T10:35:45.139Z,7.37
2022-11-19T10:38:24.661Z,8.00
2022-11-19T10:41:01.334Z,7.62
2022-11-19T10:43:41.902Z,7.62
2022-11-19T10:46:21.438Z,8.18
2022-11-19T10:48:54.111Z,8.17
2022-11-19T10:51:31.639Z,8.13
2022-11-19T10:54:02.856Z,8.30
2022-11-19T10:56:39.222Z,8.29
2022-11-19T10:59:16.795Z,8.45
2022-11-19T11:01:52.872Z,8.04
2022-11-19T11:04:24.932Z,8.49
2022-11-19T11:06:57.436Z,8.71
2022-11-19T11:09:39.232Z,9.24
2022-11-19T11:12:45.000Z,9.65
2022-11-19T11:15:18.975Z,9.37
2022-11-19T11:18:04.383Z,9.90
2022-11-19T11:20:38.293Z,9.53
2022-11-19T11:23:16.067Z,9.44
2022-11-19T11:25:55.900Z,9.63
2022-11-19T11:28:25.937Z,9.80
2022-11-19T11:30:58.618Z,9.61
2022-11-19T11:33:36.722Z,9.20
2022-11-19T11:36:12.571Z,9.87
2022-11-19T11:38:47.118Z,9.63
2022-11-19T11:42:03.697Z,9.13
2022-11-19T11:44:23.868Z,9.37
2022-11-19T11:46:57.002Z,9.87
2022-11-19T11:49:35.233Z,9.59
2022-11-19T11:52:29.662Z,9.69
2022-11-19T11:55:02.208Z,9.60
2022-11-19T11:57:34.331Z,9.47
2022-11-19T12:00:34.230Z,9.49
2022-11-19T12:03:04.960Z,9.38
2022-11-19T12:05:58.338Z,8.90
2022-11-19T12:08:50.174Z,9.13
2022-11-19T12:11:28.004Z,9.27
2022-11-19T12:14:09.573Z,9.27
2022-11-19T12:16:52.280Z,8.51
2022-11-19T12:20:03.055Z,8.21
2022-11-19T12:22:51.612Z,8.85
2022-11-19T12:25:31.534Z,8.90
2022-11-19T12:28:28.417Z,9.03
2022-11-19T12:31:10.499Z,9.21
2022-11-19T12:34:07.249Z,9.48
2022-11-19T12:36:49.700Z,9.39
2022-11-19T12:39:36.910Z,8.88
2022-11-19T12:42:29.895Z,8.98
2022-11-19T12:45:10.187Z,8.63
2022-11-19T12:48:02.260Z,8.88
2022-11-19T12:50:39.106Z,8.98
2022-11-19T12:53:23.656Z,9.34
2022-11-19T12:56:08.224Z,8.58
2022-11-19T12:58:51.927Z,8.66
2022-11-19T13:01:27.128Z,8.77
2022-11-19T13:04:06.232Z,8.87
2022-11-19T13:06:42.419Z,8.62
2022-11-19T13:09:19.611Z,8.21
2022-11-19T13:11:55.532Z,9.00
2022-11-19T13:14:41.164Z,8.77
2022-11-19T13:17:22.271Z,9.04
2022-11-19T13:20:00.392Z,8.99
2022-11-19T13:22:37.800Z,8.08
2022-11-19T13:25:16.952Z,8.35
2022-11-19T13:27:48.704Z,8.81
2022-11-19T13:30:51.949Z,8.71
2022-11-19T13:33:34.299Z,8.40
2022-11-19T13:36:16.450Z,8.38
2022-11-19T13:38:52.819Z,8.58
2022-11-19T13:41:35.486Z,8.58
2022-11-19T13:44:38.103Z,8.76
2022-11-19T13:47:20.666Z,8.81
2022-11-19T13:50:01.199Z,8.73
2022-11-19T13:52:45.368Z,8.40
2022-11-19T13:55:33.791Z,8.19
2022-11-19T13:58:31.492Z,8.40
2022-11-19T14:01:51.250Z,8.30
2022-11-19T14:06:03.599Z,7.52
2022-11-19T14:08:54.671Z,7.80
2022-11-19T14:12:06.325Z,7.81
2022-11-19T14:15:19.665Z,7.66
2022-11-19T14:18:15.673Z,7.78
2022-11-19T14:21:03.691Z,7.63
2022-11-19T14:24:05.706Z,7.57
2022-11-19T14:27:17.656Z,7.59
2022-11-19T14:30:08.997Z,7.56
2022-11-19T14:32:56.307Z,7.48
2022-11-19T14:35:44.414Z,7.39
2022-11-19T14:38:47.727Z,7.61
2022-11-19T14:41:32.383Z,7.47
2022-11-19T14:44:36.677Z,6.90
2022-11-19T14:47:37.036Z,7.45
2022-11-19T14:50:27.434Z,7.46
2022-11-19T14:56:40.520Z,7.44
2022-11-19T14:59:23.806Z,6.95
2022-11-19T15:01:59.484Z,7.60
2022-11-19T15:04:37.053Z,7.18
2022-11-19T15:07:18.110Z,7.09
2022-11-19T15:10:32.346Z,6.65
2022-11-19T15:13:26.044Z,6.81
2022-11-19T15:16:03.143Z,7.20
2022-11-19T15:19:29.044Z,7.01
2022-11-19T15:22:27.018Z,6.91
2022-11-19T15:25:36.474Z,6.78
2022-11-19T15:28:48.894Z,6.82
2022-11-19T15:31:37.326Z,6.69
2022-11-19T15:34:49.192Z,6.60
2022-11-19T15:37:39.928Z,6.45
2022-11-19T15:40:17.634Z,6.33
2022-11-19T15:42:54.701Z,6.21
2022-11-19T15:45:28.361Z,6.26
2022-11-19T15:48:09.496Z,6.06
2022-11-19T15:50:38.809Z,5.90
2022-11-19T15:53:21.608Z,5.77
2022-11-19T15:55:55.747Z,5.77
2022-11-19T15:58:31.189Z,5.77
2022-11-19T16:01:00.050Z,5.57
2022-11-19T16:03:32.431Z,5.74
2022-11-19T16:06:12.074Z,5.77
2022-11-19T16:08:45.836Z,5.54
2022-11-19T16:11:35.692Z,5.51
2022-11-19T16:14:43.164Z,5.49
2022-11-19T16:17:43.198Z,5.43
2022-11-19T16:20:22.616Z,5.41
2022-11-19T16:22:59.492Z,5.12
2022-11-19T16:25:35.983Z,5.34
2022-11-19T16:28:09.738Z,5.39
2022-11-19T16:30:49.003Z,5.34
2022-11-19T16:33:21.041Z,5.25
2022-11-19T16:35:53.310Z,5.19
2022-11-19T16:38:28.721Z,5.28
2022-11-19T16:41:16.641Z,5.28
2022-11-19T16:43:48.698Z,4.94
2022-11-19T16:46:22.935Z,4.94
2022-11-19T16:48:58.666Z,5.11
2022-11-19T16:51:39.883Z,5.00
2022-11-19T16:54:11.596Z,5.02
2022-11-19T16:56:46.133Z,5.04
2022-11-19T16:59:22.254Z,4.98
2022-11-19T17:01:56.554Z,4.71
2022-11-19T17:04:29.449Z,4.77
2022-11-19T17:06:59.474Z,4.81
2022-11-19T17:09:44.626Z,4.73
2022-11-19T17:12:29.202Z,4.63
2022-11-19T17:15:56.174Z,4.67
2022-11-19T17:18:19.731Z,4.53
2022-11-19T17:20:54.920Z,4.58
2022-11-19T17:23:25.444Z,4.46
2022-11-19T17:25:58.407Z,4.55
2022-11-19T17:28:38.259Z,4.43
2022-11-19T17:31:16.486Z,4.35
2022-11-19T17:33:54.159Z,4.24
2022-11-19T17:36:25.918Z,4.30
2022-11-19T17:38:55.193Z,4.19
2022-11-19T17:41:45.333Z,4.29
2022-11-19T17:44:40.428Z,4.23
2022-11-19T17:47:22.173Z,4.23
2022-11-19T17:49:53.068Z,4.16
2022-11-19T17:52:25.926Z,4.07
2022-11-19T17:54:58.325Z,4.10
2022-11-19T17:57:26.864Z,4.10
2022-11-19T17:59:57.246Z,4.06
2022-11-19T18:02:29.230Z,4.00
2022-11-19T18:04:58.252Z,4.06
2022-11-19T18:07:27.235Z,3.84
2022-11-19T18:09:55.984Z,3.81
2022-11-19T18:12:25.057Z,3.79
2022-11-19T18:14:56.790Z,3.74
2022-11-19T18:17:31.039Z,3.76
2022-11-19T18:20:00.213Z,3.59
2022-11-19T18:22:28.944Z,3.71
2022-11-19T18:24:57.404Z,3.62
2022-11-19T18:27:26.090Z,3.80
2022-11-19T18:29:54.953Z,3.77
2022-11-19T18:32:23.674Z,3.54
2022-11-19T18:35:00.628Z,3.60
2022-11-19T18:37:38.248Z,3.55
2022-11-19T18:40:13.875Z,3.47
2022-11-19T18:43:07.818Z,3.62
2022-11-19T18:45:35.923Z,3.48
2022-11-19T18:48:06.423Z,3.52
2022-11-19T18:50:37.494Z,3.50
2022-11-19T18:53:07.294Z,3.52
2022-11-19T18:55:41.603Z,3.56
2022-11-19T18:58:10.600Z,3.51
2022-11-19T19:00:39.504Z,3.55
2022-11-19T19:03:12.383Z,3.52
2022-11-19T19:05:50.504Z,3.34
2022-11-19T19:08:20.724Z,3.31
2022-11-19T19:10:51.508Z,3.31
2022-11-19T19:13:19.508Z,3.39
2022-11-19T19:15:49.541Z,3.36
2022-11-19T19:18:18.884Z,3.34
2022-11-19T19:20:57.585Z,3.39
2022-11-19T19:23:27.966Z,3.19
2022-11-19T19:26:00.588Z,3.19
2022-11-19T19:28:30.513Z,3.01
2022-11-19T19:31:02.813Z,3.25
2022-11-19T19:33:33.883Z,3.31
2022-11-19T19:36:08.230Z,3.25
2022-11-19T19:39:02.254Z,3.31
2022-11-19T19:41:32.044Z,3.36
2022-11-19T19:44:07.742Z,3.14
2022-11-19T19:46:37.265Z,3.20
2022-11-19T19:49:09.082Z,3.19
2022-11-19T19:51:49.388Z,3.24
2022-11-19T19:54:18.506Z,3.16
2022-11-19T19:56:51.066Z,3.13
2022-11-19T19:59:22.741Z,2.98
2022-11-19T20:01:51.802Z,2.74
2022-11-19T20:04:21.815Z,3.04
2022-11-19T20:06:56.160Z,3.02
2022-11-19T20:09:28.250Z,2.97
2022-11-19T20:11:57.325Z,2.91
2022-11-19T20:14:29.008Z,2.86
2022-11-19T20:17:03.244Z,2.90
2022-11-19T20:19:37.121Z,2.79
2022-11-19T20:22:07.523Z,2.85
2022-11-19T20:24:37.141Z,2.83
2022-11-19T20:27:17.693Z,2.83
2022-11-19T20:29:50.585Z,2.72
2022-11-19T20:32:19.876Z,2.83
2022-11-19T20:34:49.291Z,2.79
2022-11-19T20:37:19.596Z,2.78
2022-11-19T20:39:48.477Z,2.72
2022-11-19T20:42:35.003Z,2.69
2022-11-19T20:45:04.663Z,2.61
2022-11-19T20:47:33.959Z,2.67
2022-11-19T20:50:03.617Z,2.65
2022-11-19T20:52:34.706Z,2.69
2022-11-19T20:55:06.782Z,2.72
2022-11-19T20:57:35.875Z,2.67
2022-11-19T21:00:06.310Z,2.62
2022-11-19T21:02:35.494Z,2.54
2022-11-19T21:05:07.440Z,2.62
2022-11-19T21:07:37.640Z,2.51
2022-11-19T21:10:08.329Z,2.53
2022-11-19T21:12:57.928Z,2.66
2022-11-19T21:15:30.097Z,2.58
2022-11-19T21:17:59.453Z,2.60
2022-11-19T21:20:27.863Z,2.56
2022-11-19T21:22:58.227Z,2.45
2022-11-19T21:25:27.149Z,2.59
2022-11-19T21:27:55.608Z,2.40
2022-11-19T21:30:24.995Z,2.54
2022-11-19T21:32:55.013Z,2.56
2022-11-19T21:35:23.603Z,2.54
2022-11-19T21:37:53.288Z,2.49
2022-11-19T21:40:24.378Z,2.47
2022-11-19T21:42:54.671Z,2.52
2022-11-19T21:45:23.190Z,2.58
2022-11-19T21:47:51.748Z,2.51
2022-11-19T21:50:20.123Z,2.47
2022-11-19T21:52:48.945Z,2.48
2022-11-19T21:55:17.610Z,2.52
2022-11-19T21:57:47.818Z,2.44
2022-11-19T22:00:17.224Z,2.42
2022-11-19T22:02:47.326Z,2.46
2022-11-19T22:05:16.237Z,2.32
2022-11-19T22:07:46.560Z,2.36
2022-11-19T22:10:15.891Z,2.36
2022-11-19T22:12:46.523Z,2.23
2022-11-19T22:15:17.938Z,2.29
2022-11-19T22:17:48.133Z,2.31
2022-11-19T22:20:17.247Z,2.26
2022-11-19T22:22:46.669Z,2.12
2022-11-19T22:25:16.141Z,2.34
2022-11-19T22:27:44.689Z,2.18
2022-11-19T22:30:16.317Z,2.15
2022-11-19T22:32:45.100Z,2.01
2022-11-19T22:35:14.980Z,1.86
2022-11-19T22:37:45.130Z,1.94
2022-11-19T22:40:14.715Z,2.04
2022-11-19T22:42:43.290Z,1.81
2022-11-19T22:45:11.913Z,2.00
2022-11-19T22:47:42.851Z,2.14
2022-11-19T22:50:12.085Z,1.93
2022-11-19T22:52:41.950Z,2.03
2022-11-19T22:55:11.129Z,2.09
2022-11-19T22:57:39.743Z,2.06
2022-11-19T23:00:13.738Z,2.03
2022-11-19T23:02:44.601Z,2.08
2022-11-19T23:05:13.182Z,2.11
2022-11-19T23:07:41.906Z,2.01
2022-11-19T23:10:13.313Z,2.04
2022-11-19T23:12:59.097Z,2.16
2022-11-19T23:15:27.735Z,2.12
2022-11-19T23:17:58.223Z,1.88
2022-11-19T23:20:27.425Z,2.13
2022-11-19T23:22:55.802Z,2.11
2022-11-19T23:25:25.170Z,1.97
2022-11-19T23:27:53.846Z,1.83
2022-11-19T23:30:25.429Z,1.95
2022-11-19T23:33:06.129Z,1.96
2022-11-19T23:35:37.611Z,1.70
2022-11-19T23:38:06.538Z,1.94
2022-11-19T23:40:35.196Z,1.83
2022-11-19T23:43:04.171Z,1.65
2022-11-19T23:45:34.775Z,1.66
2022-11-19T23:48:03.926Z,1.78
2022-11-19T23:50:33.276Z,1.83
2022-11-19T23:53:03.625Z,1.73
2022-11-19T23:55:32.079Z,1.77
2022-11-19T23:58:00.495Z,1.54
